sensor_id;sensor_type;location;lat;lon;timestamp;temperature;humidity
983;DHT22;480;48.124;11.578;2023-01-29T00:01:54;2.10;99.90
983;DHT22;480;48.124;11.578;2023-01-29T00:04:31;2.20;99.90
983;DHT22;480;48.124;11.578;2023-01-29T00:06:59;2.20;99.90
983;DHT22;480;48.124;11.578;2023-01-29T00:09:27;2.10;99.90
983;DHT22;480;48.124;11.578;2023-01-29T00:11:54;2.20;99.90
983;DHT22;480;48.124;11.578;2023-01-29T00:14:22;2.00;99.90
983;DHT22;480;48.124;11.578;2023-01-29T00:16:50;2.10;99.90
983;DHT22;480;48.124;11.578;2023-01-29T00:19:18;1.90;99.90
983;DHT22;480;48.124;11.578;2023-01-29T00:21:47;1.90;99.90
983;DHT22;480;48.124;11.578;2023-01-29T00:24:14;1.90;99.90
983;DHT22;480;48.124;11.578;2023-01-29T00:26:42;1.70;99.90
983;DHT22;480;48.124;11.578;2023-01-29T00:29:11;1.60;99.90
983;DHT22;480;48.124;11.578;2023-01-29T00:31:38;1.60;99.90
983;DHT22;480;48.124;11.578;2023-01-29T00:34:05;1.50;99.90
983;DHT22;480;48.124;11.578;2023-01-29T00:36:32;1.60;99.90
983;DHT22;480;48.124;11.578;2023-01-29T00:39:01;1.60;99.90
983;DHT22;480;48.124;11.578;2023-01-29T00:41:35;1.60;99.90
983;DHT22;480;48.124;11.578;2023-01-29T00:44:20;1.50;99.90
983;DHT22;480;48.124;11.578;2023-01-29T00:47:05;1.50;99.90
983;DHT22;480;48.124;11.578;2023-01-29T00:49:53;1.20;99.90
983;DHT22;480;48.124;11.578;2023-01-29T00:52:20;1.30;99.90
983;DHT22;480;48.124;11.578;2023-01-29T00:54:54;1.20;99.90
983;DHT22;480;48.124;11.578;2023-01-29T00:57:22;1.20;99.90
983;DHT22;480;48.124;11.578;2023-01-29T00:59:49;1.20;99.90
983;DHT22;480;48.124;11.578;2023-01-29T01:02:16;1.30;99.90
983;DHT22;480;48.124;11.578;2023-01-29T01:05:02;1.30;99.90
983;DHT22;480;48.124;11.578;2023-01-29T01:07:31;1.30;99.90
983;DHT22;480;48.124;11.578;2023-01-29T01:10:01;1.20;99.90
983;DHT22;480;48.124;11.578;2023-01-29T01:12:45;1.30;99.90
983;DHT22;480;48.124;11.578;2023-01-29T01:15:13;1.20;99.90
983;DHT22;480;48.124;11.578;2023-01-29T01:17:41;1.10;99.90
983;DHT22;480;48.124;11.578;2023-01-29T01:20:11;1.20;99.90
983;DHT22;480;48.124;11.578;2023-01-29T01:22:38;1.30;99.90
983;DHT22;480;48.124;11.578;2023-01-29T01:25:07;1.40;99.90
983;DHT22;480;48.124;11.578;2023-01-29T01:27:34;1.40;99.90
983;DHT22;480;48.124;11.578;2023-01-29T01:30:07;1.30;99.90
983;DHT22;480;48.124;11.578;2023-01-29T01:32:35;1.40;99.90
983;DHT22;480;48.124;11.578;2023-01-29T01:35:02;1.50;99.90
983;DHT22;480;48.124;11.578;2023-01-29T01:37:29;1.30;99.90
983;DHT22;480;48.124;11.578;2023-01-29T01:39:56;1.30;99.90
983;DHT22;480;48.124;11.578;2023-01-29T01:42:28;1.20;99.90
983;DHT22;480;48.124;11.578;2023-01-29T01:44:58;1.30;99.90
983;DHT22;480;48.124;11.578;2023-01-29T01:47:33;1.30;99.90
983;DHT22;480;48.124;11.578;2023-01-29T01:50:06;1.30;99.90
983;DHT22;480;48.124;11.578;2023-01-29T01:52:37;1.20;99.90
983;DHT22;480;48.124;11.578;2023-01-29T01:55:08;1.00;99.90
983;DHT22;480;48.124;11.578;2023-01-29T01:57:41;1.20;99.90
983;DHT22;480;48.124;11.578;2023-01-29T02:00:12;1.20;99.90
983;DHT22;480;48.124;11.578;2023-01-29T02:02:42;1.20;99.90
983;DHT22;480;48.124;11.578;2023-01-29T02:05:27;1.30;99.90
983;DHT22;480;48.124;11.578;2023-01-29T02:08:14;1.50;99.90
983;DHT22;480;48.124;11.578;2023-01-29T02:11:01;1.40;99.90
983;DHT22;480;48.124;11.578;2023-01-29T02:13:29;1.50;99.90
983;DHT22;480;48.124;11.578;2023-01-29T02:15:57;1.40;99.90
983;DHT22;480;48.124;11.578;2023-01-29T02:18:24;1.50;99.90
983;DHT22;480;48.124;11.578;2023-01-29T02:21:05;1.30;99.90
983;DHT22;480;48.124;11.578;2023-01-29T02:23:56;1.30;99.90
983;DHT22;480;48.124;11.578;2023-01-29T02:26:39;1.30;99.90
983;DHT22;480;48.124;11.578;2023-01-29T02:29:18;1.30;99.90
983;DHT22;480;48.124;11.578;2023-01-29T02:31:57;1.20;99.90
983;DHT22;480;48.124;11.578;2023-01-29T02:34:35;1.20;99.90
983;DHT22;480;48.124;11.578;2023-01-29T02:37:25;1.30;99.90
983;DHT22;480;48.124;11.578;2023-01-29T02:40:04;1.20;99.90
983;DHT22;480;48.124;11.578;2023-01-29T02:42:35;1.10;99.90
983;DHT22;480;48.124;11.578;2023-01-29T02:45:10;1.30;99.90
983;DHT22;480;48.124;11.578;2023-01-29T02:47:44;1.40;99.90
983;DHT22;480;48.124;11.578;2023-01-29T02:50:16;1.40;99.90
983;DHT22;480;48.124;11.578;2023-01-29T02:52:53;1.40;99.90
983;DHT22;480;48.124;11.578;2023-01-29T02:55:24;1.20;99.90
983;DHT22;480;48.124;11.578;2023-01-29T02:57:56;1.00;99.90
983;DHT22;480;48.124;11.578;2023-01-29T03:00:31;1.00;99.90
983;DHT22;480;48.124;11.578;2023-01-29T03:03:05;0.80;99.90
983;DHT22;480;48.124;11.578;2023-01-29T03:05:38;0.90;99.90
983;DHT22;480;48.124;11.578;2023-01-29T03:08:11;0.70;99.90
983;DHT22;480;48.124;11.578;2023-01-29T03:10:44;0.70;99.90
983;DHT22;480;48.124;11.578;2023-01-29T03:13:29;0.50;99.90
983;DHT22;480;48.124;11.578;2023-01-29T03:16:02;0.70;99.90
983;DHT22;480;48.124;11.578;2023-01-29T03:18:34;0.50;99.90
983;DHT22;480;48.124;11.578;2023-01-29T03:21:09;0.60;99.90
983;DHT22;480;48.124;11.578;2023-01-29T03:23:52;0.70;99.90
983;DHT22;480;48.124;11.578;2023-01-29T03:26:39;0.60;99.90
983;DHT22;480;48.124;11.578;2023-01-29T03:29:27;0.50;99.90
983;DHT22;480;48.124;11.578;2023-01-29T03:32:14;0.60;99.90
983;DHT22;480;48.124;11.578;2023-01-29T03:34:46;0.70;99.90
983;DHT22;480;48.124;11.578;2023-01-29T03:37:20;0.60;99.90
983;DHT22;480;48.124;11.578;2023-01-29T03:39:49;0.60;99.90
983;DHT22;480;48.124;11.578;2023-01-29T03:42:21;0.70;99.90
983;DHT22;480;48.124;11.578;2023-01-29T03:44:55;0.90;99.90
983;DHT22;480;48.124;11.578;2023-01-29T03:47:37;1.10;99.90
983;DHT22;480;48.124;11.578;2023-01-29T03:50:10;1.10;99.90
983;DHT22;480;48.124;11.578;2023-01-29T03:52:42;1.30;99.90
983;DHT22;480;48.124;11.578;2023-01-29T03:55:13;1.40;99.90
983;DHT22;480;48.124;11.578;2023-01-29T03:57:45;1.20;99.90
983;DHT22;480;48.124;11.578;2023-01-29T04:00:17;0.80;99.90
983;DHT22;480;48.124;11.578;2023-01-29T04:02:50;0.60;99.90
983;DHT22;480;48.124;11.578;2023-01-29T04:05:20;0.70;99.90
983;DHT22;480;48.124;11.578;2023-01-29T04:07:53;0.80;99.90
983;DHT22;480;48.124;11.578;2023-01-29T04:10:26;0.70;99.90
983;DHT22;480;48.124;11.578;2023-01-29T04:12:57;0.60;99.90
983;DHT22;480;48.124;11.578;2023-01-29T04:15:28;0.60;99.90
983;DHT22;480;48.124;11.578;2023-01-29T04:17:59;0.60;99.90
983;DHT22;480;48.124;11.578;2023-01-29T04:20:26;0.30;99.90
983;DHT22;480;48.124;11.578;2023-01-29T04:22:53;0.20;99.90
983;DHT22;480;48.124;11.578;2023-01-29T04:25:22;0.30;99.90
983;DHT22;480;48.124;11.578;2023-01-29T04:28:03;0.20;99.90
983;DHT22;480;48.124;11.578;2023-01-29T04:30:40;0.20;99.90
983;DHT22;480;48.124;11.578;2023-01-29T04:33:18;0.30;99.90
983;DHT22;480;48.124;11.578;2023-01-29T04:35:57;0.30;99.90
983;DHT22;480;48.124;11.578;2023-01-29T04:38:38;0.40;99.90
983;DHT22;480;48.124;11.578;2023-01-29T04:41:13;0.50;99.90
983;DHT22;480;48.124;11.578;2023-01-29T04:43:48;0.70;99.90
983;DHT22;480;48.124;11.578;2023-01-29T04:46:21;0.70;99.90
983;DHT22;480;48.124;11.578;2023-01-29T04:49:02;0.80;99.90
983;DHT22;480;48.124;11.578;2023-01-29T04:51:42;0.90;99.90
983;DHT22;480;48.124;11.578;2023-01-29T04:54:17;1.10;99.90
983;DHT22;480;48.124;11.578;2023-01-29T04:56:50;1.00;99.90
983;DHT22;480;48.124;11.578;2023-01-29T04:59:22;1.20;99.90
983;DHT22;480;48.124;11.578;2023-01-29T05:01:49;1.20;99.90
983;DHT22;480;48.124;11.578;2023-01-29T05:04:19;1.40;99.90
983;DHT22;480;48.124;11.578;2023-01-29T05:06:47;1.60;99.90
983;DHT22;480;48.124;11.578;2023-01-29T05:09:18;1.50;99.90
983;DHT22;480;48.124;11.578;2023-01-29T05:11:46;1.30;99.90
983;DHT22;480;48.124;11.578;2023-01-29T05:14:17;1.10;99.90
983;DHT22;480;48.124;11.578;2023-01-29T05:16:48;0.80;99.90
983;DHT22;480;48.124;11.578;2023-01-29T05:19:18;0.90;99.90
983;DHT22;480;48.124;11.578;2023-01-29T05:21:47;0.90;99.90
983;DHT22;480;48.124;11.578;2023-01-29T05:24:16;1.00;99.90
983;DHT22;480;48.124;11.578;2023-01-29T05:26:45;1.00;99.90
983;DHT22;480;48.124;11.578;2023-01-29T05:29:31;0.70;99.90
983;DHT22;480;48.124;11.578;2023-01-29T05:31:58;0.70;99.90
983;DHT22;480;48.124;11.578;2023-01-29T05:34:26;0.50;99.90
983;DHT22;480;48.124;11.578;2023-01-29T05:36:54;0.50;99.90
983;DHT22;480;48.124;11.578;2023-01-29T05:39:21;0.50;99.90
983;DHT22;480;48.124;11.578;2023-01-29T05:41:50;0.50;99.90
983;DHT22;480;48.124;11.578;2023-01-29T05:44:18;0.50;99.90
983;DHT22;480;48.124;11.578;2023-01-29T05:46:45;0.60;99.90
983;DHT22;480;48.124;11.578;2023-01-29T05:49:12;0.70;99.90
983;DHT22;480;48.124;11.578;2023-01-29T05:51:41;1.00;99.90
983;DHT22;480;48.124;11.578;2023-01-29T05:54:10;0.90;99.90
983;DHT22;480;48.124;11.578;2023-01-29T05:56:37;1.00;99.90
983;DHT22;480;48.124;11.578;2023-01-29T05:59:04;1.20;99.90
983;DHT22;480;48.124;11.578;2023-01-29T06:01:32;1.50;99.90
983;DHT22;480;48.124;11.578;2023-01-29T06:03:59;1.50;99.90
983;DHT22;480;48.124;11.578;2023-01-29T06:06:26;1.40;99.90
983;DHT22;480;48.124;11.578;2023-01-29T06:08:54;1.30;99.90
983;DHT22;480;48.124;11.578;2023-01-29T06:11:22;1.40;99.90
983;DHT22;480;48.124;11.578;2023-01-29T06:13:49;1.40;99.90
983;DHT22;480;48.124;11.578;2023-01-29T06:16:16;1.40;99.90
983;DHT22;480;48.124;11.578;2023-01-29T06:18:43;1.50;99.90
983;DHT22;480;48.124;11.578;2023-01-29T06:21:12;1.60;99.90
983;DHT22;480;48.124;11.578;2023-01-29T06:23:39;1.60;99.90
983;DHT22;480;48.124;11.578;2023-01-29T06:26:11;1.70;99.90
983;DHT22;480;48.124;11.578;2023-01-29T06:28:38;1.50;99.90
983;DHT22;480;48.124;11.578;2023-01-29T06:31:06;1.50;99.90
983;DHT22;480;48.124;11.578;2023-01-29T06:33:34;1.40;99.90
983;DHT22;480;48.124;11.578;2023-01-29T06:36:02;1.40;99.90
983;DHT22;480;48.124;11.578;2023-01-29T06:38:30;1.40;99.90
983;DHT22;480;48.124;11.578;2023-01-29T06:41:09;1.30;99.90
983;DHT22;480;48.124;11.578;2023-01-29T06:43:36;1.20;99.90
983;DHT22;480;48.124;11.578;2023-01-29T06:46:05;1.30;99.90
983;DHT22;480;48.124;11.578;2023-01-29T06:48:33;1.20;99.90
983;DHT22;480;48.124;11.578;2023-01-29T06:51:01;0.90;99.90
983;DHT22;480;48.124;11.578;2023-01-29T06:53:28;0.80;99.90
983;DHT22;480;48.124;11.578;2023-01-29T06:55:55;0.70;99.90
983;DHT22;480;48.124;11.578;2023-01-29T06:58:24;1.00;99.90
983;DHT22;480;48.124;11.578;2023-01-29T07:00:51;1.20;99.90
983;DHT22;480;48.124;11.578;2023-01-29T07:03:18;1.40;99.90
983;DHT22;480;48.124;11.578;2023-01-29T07:05:50;1.40;99.90
983;DHT22;480;48.124;11.578;2023-01-29T07:08:17;1.10;99.90
983;DHT22;480;48.124;11.578;2023-01-29T07:10:47;1.00;99.90
983;DHT22;480;48.124;11.578;2023-01-29T07:13:14;1.00;99.90
983;DHT22;480;48.124;11.578;2023-01-29T07:15:43;0.90;99.90
983;DHT22;480;48.124;11.578;2023-01-29T07:18:10;0.90;99.90
983;DHT22;480;48.124;11.578;2023-01-29T07:20:39;1.20;99.90
983;DHT22;480;48.124;11.578;2023-01-29T07:23:08;1.10;99.90
983;DHT22;480;48.124;11.578;2023-01-29T07:25:36;0.80;99.90
983;DHT22;480;48.124;11.578;2023-01-29T07:28:05;0.80;99.90
983;DHT22;480;48.124;11.578;2023-01-29T07:30:32;0.70;99.90
983;DHT22;480;48.124;11.578;2023-01-29T07:33:03;0.70;99.90
983;DHT22;480;48.124;11.578;2023-01-29T07:35:34;0.50;99.90
983;DHT22;480;48.124;11.578;2023-01-29T07:38:02;0.50;99.90
983;DHT22;480;48.124;11.578;2023-01-29T07:40:29;0.50;99.90
983;DHT22;480;48.124;11.578;2023-01-29T07:42:57;0.50;99.90
983;DHT22;480;48.124;11.578;2023-01-29T07:45:25;0.60;99.90
983;DHT22;480;48.124;11.578;2023-01-29T07:47:52;0.80;99.90
983;DHT22;480;48.124;11.578;2023-01-29T07:50:22;0.90;99.90
983;DHT22;480;48.124;11.578;2023-01-29T07:52:49;0.90;99.90
983;DHT22;480;48.124;11.578;2023-01-29T07:55:19;0.70;99.90
983;DHT22;480;48.124;11.578;2023-01-29T07:57:46;0.50;99.90
983;DHT22;480;48.124;11.578;2023-01-29T08:00:14;0.50;99.90
983;DHT22;480;48.124;11.578;2023-01-29T08:02:41;0.60;99.90
983;DHT22;480;48.124;11.578;2023-01-29T08:05:09;0.60;99.90
983;DHT22;480;48.124;11.578;2023-01-29T08:07:37;0.80;99.90
983;DHT22;480;48.124;11.578;2023-01-29T08:10:05;0.50;99.90
983;DHT22;480;48.124;11.578;2023-01-29T08:12:32;0.50;99.90
983;DHT22;480;48.124;11.578;2023-01-29T08:14:59;0.70;99.90
983;DHT22;480;48.124;11.578;2023-01-29T08:17:26;0.90;99.90
983;DHT22;480;48.124;11.578;2023-01-29T08:19:53;1.00;99.90
983;DHT22;480;48.124;11.578;2023-01-29T08:22:20;1.10;99.90
983;DHT22;480;48.124;11.578;2023-01-29T08:24:49;1.20;99.90
983;DHT22;480;48.124;11.578;2023-01-29T08:27:16;1.40;99.90
983;DHT22;480;48.124;11.578;2023-01-29T08:29:43;1.40;99.90
983;DHT22;480;48.124;11.578;2023-01-29T08:32:11;1.10;99.90
983;DHT22;480;48.124;11.578;2023-01-29T08:34:38;1.00;99.90
983;DHT22;480;48.124;11.578;2023-01-29T08:37:05;1.00;99.90
983;DHT22;480;48.124;11.578;2023-01-29T08:39:32;1.20;99.90
983;DHT22;480;48.124;11.578;2023-01-29T08:42:00;1.20;99.90
983;DHT22;480;48.124;11.578;2023-01-29T08:44:28;1.30;99.90
983;DHT22;480;48.124;11.578;2023-01-29T08:46:55;1.50;99.90
983;DHT22;480;48.124;11.578;2023-01-29T08:49:22;1.80;99.90
983;DHT22;480;48.124;11.578;2023-01-29T08:51:49;1.70;99.90
983;DHT22;480;48.124;11.578;2023-01-29T08:54:18;1.80;99.90
983;DHT22;480;48.124;11.578;2023-01-29T08:56:45;1.90;99.90
983;DHT22;480;48.124;11.578;2023-01-29T08:59:13;2.10;99.90
983;DHT22;480;48.124;11.578;2023-01-29T09:01:40;2.10;99.90
983;DHT22;480;48.124;11.578;2023-01-29T09:04:10;2.30;99.90
983;DHT22;480;48.124;11.578;2023-01-29T09:06:38;2.20;99.90
983;DHT22;480;48.124;11.578;2023-01-29T09:09:04;2.20;99.90
983;DHT22;480;48.124;11.578;2023-01-29T09:11:32;2.30;99.90
983;DHT22;480;48.124;11.578;2023-01-29T09:14:00;2.50;99.90
983;DHT22;480;48.124;11.578;2023-01-29T09:16:30;2.40;99.90
983;DHT22;480;48.124;11.578;2023-01-29T09:18:57;2.40;99.90
983;DHT22;480;48.124;11.578;2023-01-29T09:21:24;2.50;99.90
983;DHT22;480;48.124;11.578;2023-01-29T09:23:51;2.50;99.90
983;DHT22;480;48.124;11.578;2023-01-29T09:26:18;2.50;99.90
983;DHT22;480;48.124;11.578;2023-01-29T09:28:46;2.60;99.90
983;DHT22;480;48.124;11.578;2023-01-29T09:31:13;2.60;99.90
983;DHT22;480;48.124;11.578;2023-01-29T09:33:41;2.60;99.90
983;DHT22;480;48.124;11.578;2023-01-29T09:36:08;2.70;99.90
983;DHT22;480;48.124;11.578;2023-01-29T09:38:35;2.50;99.90
983;DHT22;480;48.124;11.578;2023-01-29T09:41:08;2.50;99.90
983;DHT22;480;48.124;11.578;2023-01-29T09:43:44;2.40;99.90
983;DHT22;480;48.124;11.578;2023-01-29T09:46:18;2.30;99.90
983;DHT22;480;48.124;11.578;2023-01-29T09:48:54;2.30;99.90
983;DHT22;480;48.124;11.578;2023-01-29T09:51:27;2.20;99.90
983;DHT22;480;48.124;11.578;2023-01-29T09:54:03;2.10;99.90
983;DHT22;480;48.124;11.578;2023-01-29T09:56:31;1.70;99.90
983;DHT22;480;48.124;11.578;2023-01-29T09:58:58;1.60;99.90
983;DHT22;480;48.124;11.578;2023-01-29T10:01:31;1.90;99.90
983;DHT22;480;48.124;11.578;2023-01-29T10:04:33;2.20;99.90
983;DHT22;480;48.124;11.578;2023-01-29T10:07:17;2.10;99.90
983;DHT22;480;48.124;11.578;2023-01-29T10:10:02;2.20;99.90
983;DHT22;480;48.124;11.578;2023-01-29T10:12:43;2.10;99.90
983;DHT22;480;48.124;11.578;2023-01-29T10:15:23;1.90;99.90
983;DHT22;480;48.124;11.578;2023-01-29T10:18:05;2.20;99.90
983;DHT22;480;48.124;11.578;2023-01-29T10:20:48;2.20;99.90
983;DHT22;480;48.124;11.578;2023-01-29T10:23:22;2.30;99.90
983;DHT22;480;48.124;11.578;2023-01-29T10:25:51;2.20;99.90
983;DHT22;480;48.124;11.578;2023-01-29T10:28:22;2.20;99.90
983;DHT22;480;48.124;11.578;2023-01-29T10:30:55;2.20;99.90
983;DHT22;480;48.124;11.578;2023-01-29T10:33:29;2.30;99.90
983;DHT22;480;48.124;11.578;2023-01-29T10:36:02;2.10;99.90
983;DHT22;480;48.124;11.578;2023-01-29T10:38:39;2.00;99.90
983;DHT22;480;48.124;11.578;2023-01-29T10:41:19;2.20;99.90
983;DHT22;480;48.124;11.578;2023-01-29T10:44:00;2.60;99.90
983;DHT22;480;48.124;11.578;2023-01-29T10:46:40;2.40;99.90
983;DHT22;480;48.124;11.578;2023-01-29T10:49:19;2.50;99.90
983;DHT22;480;48.124;11.578;2023-01-29T10:54:52;2.10;99.90
983;DHT22;480;48.124;11.578;2023-01-29T10:57:33;2.00;99.90
983;DHT22;480;48.124;11.578;2023-01-29T11:00:08;2.20;99.90
983;DHT22;480;48.124;11.578;2023-01-29T11:02:42;2.30;99.90
983;DHT22;480;48.124;11.578;2023-01-29T11:05:22;2.10;99.90
983;DHT22;480;48.124;11.578;2023-01-29T11:08:01;1.90;99.90
983;DHT22;480;48.124;11.578;2023-01-29T11:10:32;2.10;99.90
983;DHT22;480;48.124;11.578;2023-01-29T11:13:02;2.30;99.90
983;DHT22;480;48.124;11.578;2023-01-29T11:15:32;2.50;99.90
983;DHT22;480;48.124;11.578;2023-01-29T11:18:05;2.50;99.90
983;DHT22;480;48.124;11.578;2023-01-29T11:20:35;2.60;99.90
983;DHT22;480;48.124;11.578;2023-01-29T11:23:03;2.60;99.90
983;DHT22;480;48.124;11.578;2023-01-29T11:25:30;2.50;99.90
983;DHT22;480;48.124;11.578;2023-01-29T11:27:59;2.50;99.90
983;DHT22;480;48.124;11.578;2023-01-29T11:30:27;2.50;99.90
983;DHT22;480;48.124;11.578;2023-01-29T11:33:05;2.40;99.90
983;DHT22;480;48.124;11.578;2023-01-29T11:35:34;2.50;99.90
983;DHT22;480;48.124;11.578;2023-01-29T11:38:13;2.40;99.90
983;DHT22;480;48.124;11.578;2023-01-29T11:40:43;2.30;99.90
983;DHT22;480;48.124;11.578;2023-01-29T11:46:01;2.30;99.90
983;DHT22;480;48.124;11.578;2023-01-29T11:48:39;2.10;99.90
983;DHT22;480;48.124;11.578;2023-01-29T11:51:09;2.10;99.90
983;DHT22;480;48.124;11.578;2023-01-29T11:53:39;2.00;99.90
983;DHT22;480;48.124;11.578;2023-01-29T11:56:20;2.20;99.90
983;DHT22;480;48.124;11.578;2023-01-29T11:58:49;2.00;99.90
983;DHT22;480;48.124;11.578;2023-01-29T12:01:26;1.60;99.90
983;DHT22;480;48.124;11.578;2023-01-29T12:03:56;1.60;99.90
983;DHT22;480;48.124;11.578;2023-01-29T12:06:26;1.90;99.90
983;DHT22;480;48.124;11.578;2023-01-29T12:08:56;2.00;99.90
983;DHT22;480;48.124;11.578;2023-01-29T12:11:27;2.20;99.90
983;DHT22;480;48.124;11.578;2023-01-29T12:13:55;2.40;99.90
983;DHT22;480;48.124;11.578;2023-01-29T12:16:27;2.60;99.90
983;DHT22;480;48.124;11.578;2023-01-29T12:19:03;2.40;99.90
983;DHT22;480;48.124;11.578;2023-01-29T12:21:34;2.40;99.90
983;DHT22;480;48.124;11.578;2023-01-29T12:24:20;2.50;99.90
983;DHT22;480;48.124;11.578;2023-01-29T12:26:52;2.70;99.90
983;DHT22;480;48.124;11.578;2023-01-29T12:29:29;2.40;99.90
983;DHT22;480;48.124;11.578;2023-01-29T12:32:04;2.50;99.90
983;DHT22;480;48.124;11.578;2023-01-29T12:34:40;2.70;99.90
983;DHT22;480;48.124;11.578;2023-01-29T12:37:16;2.70;99.90
983;DHT22;480;48.124;11.578;2023-01-29T12:39:48;2.50;99.90
983;DHT22;480;48.124;11.578;2023-01-29T12:42:18;2.50;99.90
983;DHT22;480;48.124;11.578;2023-01-29T12:44:51;2.40;99.90
983;DHT22;480;48.124;11.578;2023-01-29T12:47:22;2.60;99.90
983;DHT22;480;48.124;11.578;2023-01-29T12:49:52;2.80;99.90
983;DHT22;480;48.124;11.578;2023-01-29T12:52:29;3.00;99.90
983;DHT22;480;48.124;11.578;2023-01-29T12:55:04;3.10;99.90
983;DHT22;480;48.124;11.578;2023-01-29T12:57:39;3.10;99.90
983;DHT22;480;48.124;11.578;2023-01-29T13:00:11;3.00;99.90
983;DHT22;480;48.124;11.578;2023-01-29T13:02:44;2.90;99.90
983;DHT22;480;48.124;11.578;2023-01-29T13:05:19;3.00;99.90
983;DHT22;480;48.124;11.578;2023-01-29T13:07:54;3.00;99.90
983;DHT22;480;48.124;11.578;2023-01-29T13:10:28;3.00;99.90
983;DHT22;480;48.124;11.578;2023-01-29T13:13:00;3.00;99.90
983;DHT22;480;48.124;11.578;2023-01-29T13:15:31;3.10;99.90
983;DHT22;480;48.124;11.578;2023-01-29T13:18:22;3.10;99.90
983;DHT22;480;48.124;11.578;2023-01-29T13:20:54;3.30;99.90
983;DHT22;480;48.124;11.578;2023-01-29T13:23:29;3.40;99.90
983;DHT22;480;48.124;11.578;2023-01-29T13:26:00;3.30;99.90
983;DHT22;480;48.124;11.578;2023-01-29T13:28:27;3.30;99.90
983;DHT22;480;48.124;11.578;2023-01-29T13:31:12;3.20;99.90
983;DHT22;480;48.124;11.578;2023-01-29T13:33:41;3.00;99.90
983;DHT22;480;48.124;11.578;2023-01-29T13:36:14;3.00;99.90
983;DHT22;480;48.124;11.578;2023-01-29T13:38:43;2.80;99.90
983;DHT22;480;48.124;11.578;2023-01-29T13:41:13;2.80;99.90
983;DHT22;480;48.124;11.578;2023-01-29T13:43:42;2.80;99.90
983;DHT22;480;48.124;11.578;2023-01-29T13:46:16;2.90;99.90
983;DHT22;480;48.124;11.578;2023-01-29T13:48:47;2.70;99.90
983;DHT22;480;48.124;11.578;2023-01-29T13:51:18;2.80;99.90
983;DHT22;480;48.124;11.578;2023-01-29T13:53:53;2.80;99.90
983;DHT22;480;48.124;11.578;2023-01-29T13:56:40;2.70;99.90
983;DHT22;480;48.124;11.578;2023-01-29T13:59:21;2.80;99.90
983;DHT22;480;48.124;11.578;2023-01-29T14:02:17;2.90;99.90
983;DHT22;480;48.124;11.578;2023-01-29T14:04:46;2.70;99.90
983;DHT22;480;48.124;11.578;2023-01-29T14:07:47;2.70;99.90
983;DHT22;480;48.124;11.578;2023-01-29T14:10:17;2.80;99.90
983;DHT22;480;48.124;11.578;2023-01-29T14:12:50;2.70;99.90
983;DHT22;480;48.124;11.578;2023-01-29T14:15:30;2.60;99.90
983;DHT22;480;48.124;11.578;2023-01-29T14:18:25;2.50;99.90
983;DHT22;480;48.124;11.578;2023-01-29T14:21:10;2.40;99.90
983;DHT22;480;48.124;11.578;2023-01-29T14:23:47;2.30;99.90
983;DHT22;480;48.124;11.578;2023-01-29T14:26:24;2.30;99.90
983;DHT22;480;48.124;11.578;2023-01-29T14:28:58;2.10;99.90
983;DHT22;480;48.124;11.578;2023-01-29T14:31:34;2.10;99.90
983;DHT22;480;48.124;11.578;2023-01-29T14:34:05;2.20;99.90
983;DHT22;480;48.124;11.578;2023-01-29T14:36:38;2.40;99.90
983;DHT22;480;48.124;11.578;2023-01-29T14:39:15;2.30;99.90
983;DHT22;480;48.124;11.578;2023-01-29T14:41:44;2.30;99.90
983;DHT22;480;48.124;11.578;2023-01-29T14:44:47;2.30;99.90
983;DHT22;480;48.124;11.578;2023-01-29T14:47:19;2.30;99.90
983;DHT22;480;48.124;11.578;2023-01-29T14:49:50;2.30;99.90
983;DHT22;480;48.124;11.578;2023-01-29T14:52:20;2.20;99.90
983;DHT22;480;48.124;11.578;2023-01-29T14:54:49;2.10;99.90
983;DHT22;480;48.124;11.578;2023-01-29T14:57:18;2.00;99.90
983;DHT22;480;48.124;11.578;2023-01-29T14:59:53;2.00;99.90
983;DHT22;480;48.124;11.578;2023-01-29T15:02:24;2.10;99.90
983;DHT22;480;48.124;11.578;2023-01-29T15:04:54;2.20;99.90
983;DHT22;480;48.124;11.578;2023-01-29T15:07:28;2.30;99.90
983;DHT22;480;48.124;11.578;2023-01-29T15:10:05;2.20;99.90
983;DHT22;480;48.124;11.578;2023-01-29T15:12:44;2.10;99.90
983;DHT22;480;48.124;11.578;2023-01-29T15:15:18;2.20;99.90
983;DHT22;480;48.124;11.578;2023-01-29T15:17:53;2.00;99.90
983;DHT22;480;48.124;11.578;2023-01-29T15:20:27;2.20;99.90
983;DHT22;480;48.124;11.578;2023-01-29T15:22:55;2.20;99.90
983;DHT22;480;48.124;11.578;2023-01-29T15:25:22;2.20;99.90
983;DHT22;480;48.124;11.578;2023-01-29T15:27:49;2.00;99.90
983;DHT22;480;48.124;11.578;2023-01-29T15:30:22;2.00;99.90
983;DHT22;480;48.124;11.578;2023-01-29T15:32:49;2.00;99.90
983;DHT22;480;48.124;11.578;2023-01-29T15:35:26;1.70;99.90
983;DHT22;480;48.124;11.578;2023-01-29T15:38:02;1.80;99.90
983;DHT22;480;48.124;11.578;2023-01-29T15:40:29;1.70;99.90
983;DHT22;480;48.124;11.578;2023-01-29T15:42:56;1.80;99.90
983;DHT22;480;48.124;11.578;2023-01-29T15:45:28;1.70;99.90
983;DHT22;480;48.124;11.578;2023-01-29T15:47:59;1.60;99.90
983;DHT22;480;48.124;11.578;2023-01-29T15:50:27;1.60;99.90
983;DHT22;480;48.124;11.578;2023-01-29T15:52:59;1.50;99.90
983;DHT22;480;48.124;11.578;2023-01-29T15:55:30;1.40;99.90
983;DHT22;480;48.124;11.578;2023-01-29T15:57:58;1.30;99.90
983;DHT22;480;48.124;11.578;2023-01-29T16:00:28;1.30;99.90
983;DHT22;480;48.124;11.578;2023-01-29T16:02:56;1.30;99.90
983;DHT22;480;48.124;11.578;2023-01-29T16:05:27;1.50;99.90
983;DHT22;480;48.124;11.578;2023-01-29T16:07:56;1.50;99.90
983;DHT22;480;48.124;11.578;2023-01-29T16:10:25;1.40;99.90
983;DHT22;480;48.124;11.578;2023-01-29T16:12:53;1.40;99.90
983;DHT22;480;48.124;11.578;2023-01-29T16:15:30;1.40;99.90
983;DHT22;480;48.124;11.578;2023-01-29T16:17:59;1.30;99.90
983;DHT22;480;48.124;11.578;2023-01-29T16:20:37;1.30;99.90
983;DHT22;480;48.124;11.578;2023-01-29T16:23:08;1.30;99.90
983;DHT22;480;48.124;11.578;2023-01-29T16:25:42;1.40;99.90
983;DHT22;480;48.124;11.578;2023-01-29T16:28:09;1.40;99.90
983;DHT22;480;48.124;11.578;2023-01-29T16:30:38;1.40;99.90
983;DHT22;480;48.124;11.578;2023-01-29T16:33:10;1.30;99.90
983;DHT22;480;48.124;11.578;2023-01-29T16:35:38;1.30;99.90
983;DHT22;480;48.124;11.578;2023-01-29T16:38:14;1.40;99.90
983;DHT22;480;48.124;11.578;2023-01-29T16:41:05;1.20;99.90
983;DHT22;480;48.124;11.578;2023-01-29T16:43:51;1.30;99.90
983;DHT22;480;48.124;11.578;2023-01-29T16:46:23;1.30;99.90
983;DHT22;480;48.124;11.578;2023-01-29T16:48:51;1.40;99.90
983;DHT22;480;48.124;11.578;2023-01-29T16:51:24;1.50;99.90
983;DHT22;480;48.124;11.578;2023-01-29T16:54:00;1.50;99.90
983;DHT22;480;48.124;11.578;2023-01-29T16:56:31;1.60;99.90
983;DHT22;480;48.124;11.578;2023-01-29T16:58:59;1.70;99.90
983;DHT22;480;48.124;11.578;2023-01-29T17:01:29;1.70;99.90
983;DHT22;480;48.124;11.578;2023-01-29T17:04:00;1.60;99.90
983;DHT22;480;48.124;11.578;2023-01-29T17:06:31;1.40;99.90
983;DHT22;480;48.124;11.578;2023-01-29T17:08:58;1.40;99.90
983;DHT22;480;48.124;11.578;2023-01-29T17:11:30;1.30;99.90
983;DHT22;480;48.124;11.578;2023-01-29T17:13:58;1.20;99.90